This is the latest recevied weather packets stored in our database for station/object WX5RP. If no packets are shown the sender has not sent any weather packets the latest 10 day(s).
| Time | Temp. | Humidity | Pressure | Rain* | Wind** | Luminosity | Snow |
|---|---|---|---|---|---|---|---|
| 1787674817 | 19.44° C | 37% | 1022.6 hPa | 0 mm | - | 580 W/m² | - |
| 1787674217 | 18.89° C | 38% | 1022.7 hPa | 0 mm | - | 573 W/m² | - |
| 1787673617 | 17.78° C | 39% | 1022.9 hPa | 0 mm | - | 461 W/m² | - |
| 1787673018 | 16.67° C | 42% | 1024.1 hPa | 0 mm | - | 486 W/m² | - |
| 1787672419 | 16.11° C | 43% | 1024.1 hPa | 0 mm | - | 438 W/m² | - |
| 1787671817 | 15.56° C | 43% | 1024 hPa | 0 mm | - | 406 W/m² | - |
| 1787671217 | 13.89° C | 47% | 1023.8 hPa | 0 mm | - | 356 W/m² | - |
| 1787670616 | 12.22° C | 53% | 1022.6 hPa | 0 mm | - | 274 W/m² | - |
| 1787670017 | 11.67° C | 55% | 1022.6 hPa | 0 mm | - | 267 W/m² | - |
| 1787669416 | 10.56° C | 60% | 1022.6 hPa | 0 mm | - | 238 W/m² | - |
| 1787668816 | 8.89° C | 62% | 1022.9 hPa | 0 mm | - | 208 W/m² | - |
| 1787668218 | 7.78° C | 64% | 1022.9 hPa | 0 mm | - | 147 W/m² | - |
| 1787667616 | 7.22° C | 65% | 1023.2 hPa | 0 mm | - | 126 W/m² | - |
| 1787667017 | 6.11° C | 67% | 1022.5 hPa | 0 mm | - | 91 W/m² | - |
| 1787666416 | 5° C | 66% | 1022.5 hPa | 0 mm | - | 54 W/m² | - |
| 1787665816 | 4.44° C | 68% | 1022.5 hPa | 0 mm | - | 25 W/m² | - |
| 1787665217 | 4.44° C | 69% | 1022.4 hPa | 0 mm | - | 15 W/m² | - |
| 1787664616 | 4.44° C | 68% | 1022.4 hPa | 0 mm | - | 8 W/m² | - |
| 1787664016 | 4.44° C | 69% | 1022.2 hPa | 0 mm | - | 2 W/m² | - |
| 1787663416 | 3.89° C | 71% | 1021.1 hPa | 0 mm | - | 0 W/m² | - |
| 1787662816 | 5° C | 71% | 1021.4 hPa | 0 mm | - | 0 W/m² | - |
| 1787662217 | 5.56° C | 68% | 1021 hPa | 0 mm | - | 0 W/m² | - |
| 1787661616 | 5.56° C | 71% | 1021.3 hPa | 0 mm | - | 0 W/m² | - |
| 1787661017 | 5.56° C | 72% | 1021.6 hPa | 0 mm | - | 0 W/m² | - |
| 1787660416 | 6.11° C | 70% | 1021.2 hPa | 0 mm | - | 0 W/m² | - |
* Rain latest hour (hover to see other rain measurements)
** Current wind speed in m/s (hover to see current wind gust speed)